sensor_id;sensor_type;location;lat;lon;timestamp;P1;durP1;ratioP1;P2;durP2;ratioP2
66129;SDS011;52930;51.464;11.764;2022-08-19T00:00:17;34.70;;;19.23;;
66129;SDS011;52930;51.464;11.764;2022-08-19T00:02:43;36.85;;;20.00;;
66129;SDS011;52930;51.464;11.764;2022-08-19T00:05:10;38.97;;;21.23;;
66129;SDS011;52930;51.464;11.764;2022-08-19T00:07:36;43.10;;;22.37;;
66129;SDS011;52930;51.464;11.764;2022-08-19T00:10:02;37.65;;;20.02;;
66129;SDS011;52930;51.464;11.764;2022-08-19T00:12:29;41.25;;;21.35;;
66129;SDS011;52930;51.464;11.764;2022-08-19T00:14:55;41.33;;;22.73;;
66129;SDS011;52930;51.464;11.764;2022-08-19T00:17:20;40.37;;;21.27;;
66129;SDS011;52930;51.464;11.764;2022-08-19T00:19:45;42.63;;;21.70;;
66129;SDS011;52930;51.464;11.764;2022-08-19T00:22:11;41.47;;;21.38;;
66129;SDS011;52930;51.464;11.764;2022-08-19T00:24:36;44.17;;;22.07;;
66129;SDS011;52930;51.464;11.764;2022-08-19T00:27:03;43.97;;;23.20;;
66129;SDS011;52930;51.464;11.764;2022-08-19T00:29:29;41.70;;;20.50;;
66129;SDS011;52930;51.464;11.764;2022-08-19T00:31:56;49.20;;;23.55;;
66129;SDS011;52930;51.464;11.764;2022-08-19T00:34:23;51.22;;;23.02;;
66129;SDS011;52930;51.464;11.764;2022-08-19T00:36:51;43.50;;;23.52;;
66129;SDS011;52930;51.464;11.764;2022-08-19T00:39:17;45.77;;;23.03;;
66129;SDS011;52930;51.464;11.764;2022-08-19T00:41:43;44.43;;;22.50;;
66129;SDS011;52930;51.464;11.764;2022-08-19T00:44:13;41.47;;;22.05;;
66129;SDS011;52930;51.464;11.764;2022-08-19T00:46:43;37.75;;;21.02;;
66129;SDS011;52930;51.464;11.764;2022-08-19T00:49:16;41.95;;;22.33;;
66129;SDS011;52930;51.464;11.764;2022-08-19T00:51:47;43.63;;;22.88;;
66129;SDS011;52930;51.464;11.764;2022-08-19T00:54:15;40.27;;;21.37;;
66129;SDS011;52930;51.464;11.764;2022-08-19T00:56:41;39.35;;;21.42;;
66129;SDS011;52930;51.464;11.764;2022-08-19T00:59:06;40.43;;;21.87;;
66129;SDS011;52930;51.464;11.764;2022-08-19T01:01:34;40.92;;;20.77;;
66129;SDS011;52930;51.464;11.764;2022-08-19T01:04:01;45.95;;;22.05;;
66129;SDS011;52930;51.464;11.764;2022-08-19T01:06:26;39.80;;;21.47;;
66129;SDS011;52930;51.464;11.764;2022-08-19T01:08:53;45.07;;;22.80;;
66129;SDS011;52930;51.464;11.764;2022-08-19T01:11:19;45.65;;;23.08;;
66129;SDS011;52930;51.464;11.764;2022-08-19T01:13:44;44.67;;;23.63;;
66129;SDS011;52930;51.464;11.764;2022-08-19T01:16:10;45.60;;;22.70;;
66129;SDS011;52930;51.464;11.764;2022-08-19T01:18:38;43.80;;;22.93;;
66129;SDS011;52930;51.464;11.764;2022-08-19T01:21:08;43.30;;;22.30;;
66129;SDS011;52930;51.464;11.764;2022-08-19T01:23:36;46.55;;;24.05;;
66129;SDS011;52930;51.464;11.764;2022-08-19T01:26:09;38.30;;;21.57;;
66129;SDS011;52930;51.464;11.764;2022-08-19T01:28:39;40.33;;;21.88;;
66129;SDS011;52930;51.464;11.764;2022-08-19T01:31:06;39.40;;;21.83;;
66129;SDS011;52930;51.464;11.764;2022-08-19T01:33:33;44.85;;;22.60;;
66129;SDS011;52930;51.464;11.764;2022-08-19T01:36:06;42.67;;;22.80;;
66129;SDS011;52930;51.464;11.764;2022-08-19T01:38:34;39.42;;;21.08;;
66129;SDS011;52930;51.464;11.764;2022-08-19T01:41:01;40.63;;;22.27;;
66129;SDS011;52930;51.464;11.764;2022-08-19T01:43:26;39.23;;;21.67;;
66129;SDS011;52930;51.464;11.764;2022-08-19T01:45:52;37.47;;;21.67;;
66129;SDS011;52930;51.464;11.764;2022-08-19T01:48:18;39.33;;;21.67;;
66129;SDS011;52930;51.464;11.764;2022-08-19T01:50:43;39.40;;;21.23;;
66129;SDS011;52930;51.464;11.764;2022-08-19T01:53:10;41.35;;;22.08;;
66129;SDS011;52930;51.464;11.764;2022-08-19T01:55:37;41.43;;;21.67;;
66129;SDS011;52930;51.464;11.764;2022-08-19T01:58:05;42.25;;;21.80;;
66129;SDS011;52930;51.464;11.764;2022-08-19T02:00:31;41.97;;;23.02;;
66129;SDS011;52930;51.464;11.764;2022-08-19T02:02:57;45.92;;;23.17;;
66129;SDS011;52930;51.464;11.764;2022-08-19T02:05:23;48.23;;;24.50;;
66129;SDS011;52930;51.464;11.764;2022-08-19T02:07:48;43.78;;;23.00;;
66129;SDS011;52930;51.464;11.764;2022-08-19T02:10:17;46.50;;;23.67;;
66129;SDS011;52930;51.464;11.764;2022-08-19T02:12:44;53.13;;;26.25;;
66129;SDS011;52930;51.464;11.764;2022-08-19T02:15:11;52.10;;;26.40;;
66129;SDS011;52930;51.464;11.764;2022-08-19T02:17:37;50.80;;;25.52;;
66129;SDS011;52930;51.464;11.764;2022-08-19T02:20:02;57.77;;;28.13;;
66129;SDS011;52930;51.464;11.764;2022-08-19T02:22:28;53.05;;;26.58;;
66129;SDS011;52930;51.464;11.764;2022-08-19T02:24:54;53.43;;;26.80;;
66129;SDS011;52930;51.464;11.764;2022-08-19T02:27:20;55.45;;;27.33;;
66129;SDS011;52930;51.464;11.764;2022-08-19T02:29:47;56.50;;;26.02;;
66129;SDS011;52930;51.464;11.764;2022-08-19T02:32:13;58.63;;;29.80;;
66129;SDS011;52930;51.464;11.764;2022-08-19T02:34:39;61.78;;;28.95;;
66129;SDS011;52930;51.464;11.764;2022-08-19T02:37:04;56.17;;;29.00;;
66129;SDS011;52930;51.464;11.764;2022-08-19T02:39:30;57.50;;;28.40;;
66129;SDS011;52930;51.464;11.764;2022-08-19T02:41:55;55.67;;;28.77;;
66129;SDS011;52930;51.464;11.764;2022-08-19T02:44:21;55.20;;;29.27;;
66129;SDS011;52930;51.464;11.764;2022-08-19T02:46:47;55.20;;;27.30;;
66129;SDS011;52930;51.464;11.764;2022-08-19T02:49:12;54.38;;;28.35;;
66129;SDS011;52930;51.464;11.764;2022-08-19T02:51:41;53.15;;;28.27;;
66129;SDS011;52930;51.464;11.764;2022-08-19T02:54:08;57.80;;;28.87;;
66129;SDS011;52930;51.464;11.764;2022-08-19T02:56:35;55.90;;;27.65;;
66129;SDS011;52930;51.464;11.764;2022-08-19T02:59:02;50.33;;;26.13;;
66129;SDS011;52930;51.464;11.764;2022-08-19T03:01:31;55.33;;;27.63;;
66129;SDS011;52930;51.464;11.764;2022-08-19T03:03:58;55.47;;;29.08;;
66129;SDS011;52930;51.464;11.764;2022-08-19T03:06:26;53.90;;;28.23;;
66129;SDS011;52930;51.464;11.764;2022-08-19T03:08:52;56.97;;;27.98;;
66129;SDS011;52930;51.464;11.764;2022-08-19T03:11:22;54.13;;;27.60;;
66129;SDS011;52930;51.464;11.764;2022-08-19T03:13:49;54.67;;;28.43;;
66129;SDS011;52930;51.464;11.764;2022-08-19T03:16:15;57.88;;;28.85;;
66129;SDS011;52930;51.464;11.764;2022-08-19T03:18:44;51.88;;;27.27;;
66129;SDS011;52930;51.464;11.764;2022-08-19T03:21:16;58.35;;;28.02;;
66129;SDS011;52930;51.464;11.764;2022-08-19T03:23:42;52.10;;;27.50;;
66129;SDS011;52930;51.464;11.764;2022-08-19T03:26:07;53.67;;;26.97;;
66129;SDS011;52930;51.464;11.764;2022-08-19T03:28:33;55.90;;;27.43;;
66129;SDS011;52930;51.464;11.764;2022-08-19T03:31:06;56.00;;;27.33;;
66129;SDS011;52930;51.464;11.764;2022-08-19T03:33:33;53.45;;;27.58;;
66129;SDS011;52930;51.464;11.764;2022-08-19T03:36:01;53.47;;;27.88;;
66129;SDS011;52930;51.464;11.764;2022-08-19T03:38:29;53.85;;;28.30;;
66129;SDS011;52930;51.464;11.764;2022-08-19T03:40:55;57.30;;;28.73;;
66129;SDS011;52930;51.464;11.764;2022-08-19T03:43:20;55.47;;;28.20;;
66129;SDS011;52930;51.464;11.764;2022-08-19T03:45:46;55.30;;;27.57;;
66129;SDS011;52930;51.464;11.764;2022-08-19T03:48:12;57.83;;;28.77;;
66129;SDS011;52930;51.464;11.764;2022-08-19T03:50:40;54.93;;;29.90;;
66129;SDS011;52930;51.464;11.764;2022-08-19T03:53:05;58.33;;;27.45;;
66129;SDS011;52930;51.464;11.764;2022-08-19T03:55:32;53.80;;;27.60;;
66129;SDS011;52930;51.464;11.764;2022-08-19T03:57:57;55.43;;;26.87;;
66129;SDS011;52930;51.464;11.764;2022-08-19T04:00:23;47.97;;;25.13;;
66129;SDS011;52930;51.464;11.764;2022-08-19T04:02:48;51.70;;;26.60;;
66129;SDS011;52930;51.464;11.764;2022-08-19T04:05:14;53.78;;;27.15;;
66129;SDS011;52930;51.464;11.764;2022-08-19T04:07:39;44.87;;;25.10;;
66129;SDS011;52930;51.464;11.764;2022-08-19T04:10:05;44.90;;;25.03;;
66129;SDS011;52930;51.464;11.764;2022-08-19T04:12:31;46.88;;;26.35;;
66129;SDS011;52930;51.464;11.764;2022-08-19T04:14:56;45.83;;;25.00;;
66129;SDS011;52930;51.464;11.764;2022-08-19T04:17:23;43.47;;;24.88;;
66129;SDS011;52930;51.464;11.764;2022-08-19T04:19:48;44.70;;;24.80;;
66129;SDS011;52930;51.464;11.764;2022-08-19T04:22:14;41.08;;;23.83;;
66129;SDS011;52930;51.464;11.764;2022-08-19T04:24:39;43.53;;;24.67;;
66129;SDS011;52930;51.464;11.764;2022-08-19T04:27:05;40.90;;;23.47;;
66129;SDS011;52930;51.464;11.764;2022-08-19T04:29:31;45.42;;;24.40;;
66129;SDS011;52930;51.464;11.764;2022-08-19T04:31:57;44.07;;;24.20;;
66129;SDS011;52930;51.464;11.764;2022-08-19T04:34:24;42.97;;;22.40;;
66129;SDS011;52930;51.464;11.764;2022-08-19T04:36:51;43.35;;;22.92;;
66129;SDS011;52930;51.464;11.764;2022-08-19T04:39:21;42.63;;;23.13;;
66129;SDS011;52930;51.464;11.764;2022-08-19T04:42:09;39.77;;;21.33;;
66129;SDS011;52930;51.464;11.764;2022-08-19T04:44:57;42.38;;;22.52;;
66129;SDS011;52930;51.464;11.764;2022-08-19T04:47:23;41.28;;;23.55;;
66129;SDS011;52930;51.464;11.764;2022-08-19T04:49:49;41.70;;;21.73;;
66129;SDS011;52930;51.464;11.764;2022-08-19T04:52:14;39.10;;;20.53;;
66129;SDS011;52930;51.464;11.764;2022-08-19T04:54:39;39.50;;;21.88;;
66129;SDS011;52930;51.464;11.764;2022-08-19T04:57:06;40.03;;;20.47;;
66129;SDS011;52930;51.464;11.764;2022-08-19T04:59:34;35.07;;;20.10;;
66129;SDS011;52930;51.464;11.764;2022-08-19T05:02:01;38.17;;;20.92;;
66129;SDS011;52930;51.464;11.764;2022-08-19T05:04:27;39.08;;;21.50;;
66129;SDS011;52930;51.464;11.764;2022-08-19T05:06:55;38.97;;;21.35;;
66129;SDS011;52930;51.464;11.764;2022-08-19T05:09:20;40.17;;;21.53;;
66129;SDS011;52930;51.464;11.764;2022-08-19T05:11:46;36.83;;;20.40;;
66129;SDS011;52930;51.464;11.764;2022-08-19T05:14:12;34.75;;;19.05;;
66129;SDS011;52930;51.464;11.764;2022-08-19T05:16:38;34.03;;;19.30;;
66129;SDS011;52930;51.464;11.764;2022-08-19T05:19:04;32.10;;;19.27;;
66129;SDS011;52930;51.464;11.764;2022-08-19T05:21:48;35.42;;;18.50;;
66129;SDS011;52930;51.464;11.764;2022-08-19T05:24:32;32.35;;;17.50;;
66129;SDS011;52930;51.464;11.764;2022-08-19T05:27:00;32.28;;;18.02;;
66129;SDS011;52930;51.464;11.764;2022-08-19T05:29:28;27.17;;;16.03;;
66129;SDS011;52930;51.464;11.764;2022-08-19T05:31:54;33.03;;;16.42;;
66129;SDS011;52930;51.464;11.764;2022-08-19T05:34:21;34.97;;;17.52;;
66129;SDS011;52930;51.464;11.764;2022-08-19T05:36:49;31.92;;;16.17;;
66129;SDS011;52930;51.464;11.764;2022-08-19T05:39:17;33.38;;;16.05;;
66129;SDS011;52930;51.464;11.764;2022-08-19T05:41:47;26.57;;;13.93;;
66129;SDS011;52930;51.464;11.764;2022-08-19T05:44:15;27.15;;;15.00;;
66129;SDS011;52930;51.464;11.764;2022-08-19T05:46:42;29.25;;;14.55;;
66129;SDS011;52930;51.464;11.764;2022-08-19T05:49:11;24.90;;;14.40;;
66129;SDS011;52930;51.464;11.764;2022-08-19T05:51:37;27.50;;;14.73;;
66129;SDS011;52930;51.464;11.764;2022-08-19T05:54:03;23.70;;;13.93;;
66129;SDS011;52930;51.464;11.764;2022-08-19T05:56:30;27.63;;;14.13;;
66129;SDS011;52930;51.464;11.764;2022-08-19T05:58:56;26.15;;;13.85;;
66129;SDS011;52930;51.464;11.764;2022-08-19T06:01:23;24.20;;;12.33;;
66129;SDS011;52930;51.464;11.764;2022-08-19T06:03:49;23.60;;;11.77;;
66129;SDS011;52930;51.464;11.764;2022-08-19T06:06:15;23.45;;;12.93;;
66129;SDS011;52930;51.464;11.764;2022-08-19T06:08:41;24.00;;;13.47;;
66129;SDS011;52930;51.464;11.764;2022-08-19T06:11:41;24.17;;;13.02;;
66129;SDS011;52930;51.464;11.764;2022-08-19T06:14:05;23.05;;;13.05;;
66129;SDS011;52930;51.464;11.764;2022-08-19T06:16:34;25.05;;;13.73;;
66129;SDS011;52930;51.464;11.764;2022-08-19T06:19:00;23.70;;;13.53;;
66129;SDS011;52930;51.464;11.764;2022-08-19T06:21:28;27.77;;;13.98;;
66129;SDS011;52930;51.464;11.764;2022-08-19T06:23:54;27.08;;;13.43;;
66129;SDS011;52930;51.464;11.764;2022-08-19T06:26:20;25.17;;;14.40;;
66129;SDS011;52930;51.464;11.764;2022-08-19T06:28:46;24.20;;;14.73;;
66129;SDS011;52930;51.464;11.764;2022-08-19T06:31:13;24.37;;;13.13;;
66129;SDS011;52930;51.464;11.764;2022-08-19T06:33:43;26.90;;;14.07;;
66129;SDS011;52930;51.464;11.764;2022-08-19T06:36:25;28.15;;;15.25;;
66129;SDS011;52930;51.464;11.764;2022-08-19T06:38:54;26.83;;;15.15;;
66129;SDS011;52930;51.464;11.764;2022-08-19T06:41:21;28.67;;;15.13;;
66129;SDS011;52930;51.464;11.764;2022-08-19T06:43:47;28.03;;;14.63;;
66129;SDS011;52930;51.464;11.764;2022-08-19T06:46:14;24.52;;;13.75;;
66129;SDS011;52930;51.464;11.764;2022-08-19T06:48:40;22.63;;;12.50;;
66129;SDS011;52930;51.464;11.764;2022-08-19T06:51:06;26.77;;;14.27;;
66129;SDS011;52930;51.464;11.764;2022-08-19T06:53:32;29.93;;;16.50;;
66129;SDS011;52930;51.464;11.764;2022-08-19T06:55:57;27.88;;;15.50;;
66129;SDS011;52930;51.464;11.764;2022-08-19T06:58:27;23.50;;;13.38;;
66129;SDS011;52930;51.464;11.764;2022-08-19T07:00:57;27.33;;;14.05;;
66129;SDS011;52930;51.464;11.764;2022-08-19T07:03:27;25.60;;;14.50;;
66129;SDS011;52930;51.464;11.764;2022-08-19T07:05:55;26.15;;;13.77;;
66129;SDS011;52930;51.464;11.764;2022-08-19T07:08:21;28.05;;;14.55;;
66129;SDS011;52930;51.464;11.764;2022-08-19T07:10:46;28.67;;;14.13;;
66129;SDS011;52930;51.464;11.764;2022-08-19T07:13:13;23.95;;;12.95;;
66129;SDS011;52930;51.464;11.764;2022-08-19T07:15:38;25.02;;;14.32;;
66129;SDS011;52930;51.464;11.764;2022-08-19T07:18:04;24.63;;;12.87;;
66129;SDS011;52930;51.464;11.764;2022-08-19T07:20:29;27.20;;;12.53;;
66129;SDS011;52930;51.464;11.764;2022-08-19T07:22:55;23.40;;;10.83;;
66129;SDS011;52930;51.464;11.764;2022-08-19T07:25:20;26.00;;;13.43;;
66129;SDS011;52930;51.464;11.764;2022-08-19T07:27:48;25.98;;;13.70;;
66129;SDS011;52930;51.464;11.764;2022-08-19T07:30:14;27.25;;;14.57;;
66129;SDS011;52930;51.464;11.764;2022-08-19T07:32:40;28.00;;;14.70;;
66129;SDS011;52930;51.464;11.764;2022-08-19T07:35:05;31.77;;;14.60;;
66129;SDS011;52930;51.464;11.764;2022-08-19T07:37:32;30.17;;;15.50;;
66129;SDS011;52930;51.464;11.764;2022-08-19T07:39:57;30.13;;;15.40;;
66129;SDS011;52930;51.464;11.764;2022-08-19T07:42:22;27.90;;;14.17;;
66129;SDS011;52930;51.464;11.764;2022-08-19T07:44:47;28.87;;;15.37;;
66129;SDS011;52930;51.464;11.764;2022-08-19T07:47:13;26.45;;;14.85;;
66129;SDS011;52930;51.464;11.764;2022-08-19T07:49:40;25.97;;;15.03;;
66129;SDS011;52930;51.464;11.764;2022-08-19T07:52:07;27.20;;;15.25;;
66129;SDS011;52930;51.464;11.764;2022-08-19T07:54:35;25.52;;;13.90;;
66129;SDS011;52930;51.464;11.764;2022-08-19T07:57:01;22.75;;;12.95;;
66129;SDS011;52930;51.464;11.764;2022-08-19T07:59:27;23.50;;;10.83;;
66129;SDS011;52930;51.464;11.764;2022-08-19T08:01:53;20.65;;;10.27;;
66129;SDS011;52930;51.464;11.764;2022-08-19T08:04:19;17.95;;;10.15;;
66129;SDS011;52930;51.464;11.764;2022-08-19T08:07:04;17.15;;;9.60;;
66129;SDS011;52930;51.464;11.764;2022-08-19T08:09:49;16.73;;;9.83;;
66129;SDS011;52930;51.464;11.764;2022-08-19T08:12:17;18.08;;;8.95;;
66129;SDS011;52930;51.464;11.764;2022-08-19T08:14:48;19.30;;;9.50;;
66129;SDS011;52930;51.464;11.764;2022-08-19T08:17:14;23.15;;;9.13;;
66129;SDS011;52930;51.464;11.764;2022-08-19T08:19:41;16.63;;;8.75;;
66129;SDS011;52930;51.464;11.764;2022-08-19T08:22:09;14.98;;;8.85;;
66129;SDS011;52930;51.464;11.764;2022-08-19T08:24:56;16.23;;;10.23;;
66129;SDS011;52930;51.464;11.764;2022-08-19T08:27:23;18.33;;;9.97;;
66129;SDS011;52930;51.464;11.764;2022-08-19T08:29:49;17.80;;;9.23;;
66129;SDS011;52930;51.464;11.764;2022-08-19T08:32:15;18.73;;;9.85;;
66129;SDS011;52930;51.464;11.764;2022-08-19T08:34:40;19.27;;;10.23;;
66129;SDS011;52930;51.464;11.764;2022-08-19T08:37:06;19.98;;;9.88;;
66129;SDS011;52930;51.464;11.764;2022-08-19T08:39:31;19.80;;;10.33;;
66129;SDS011;52930;51.464;11.764;2022-08-19T08:41:58;21.33;;;10.70;;
66129;SDS011;52930;51.464;11.764;2022-08-19T08:44:46;21.45;;;10.48;;
66129;SDS011;52930;51.464;11.764;2022-08-19T08:47:15;20.03;;;10.63;;
66129;SDS011;52930;51.464;11.764;2022-08-19T08:52:16;20.20;;;10.70;;
66129;SDS011;52930;51.464;11.764;2022-08-19T08:54:46;19.27;;;10.80;;
66129;SDS011;52930;51.464;11.764;2022-08-19T08:57:15;20.48;;;10.93;;
66129;SDS011;52930;51.464;11.764;2022-08-19T08:59:44;21.67;;;11.80;;
66129;SDS011;52930;51.464;11.764;2022-08-19T09:02:16;19.85;;;11.13;;
66129;SDS011;52930;51.464;11.764;2022-08-19T09:04:41;21.60;;;11.95;;
66129;SDS011;52930;51.464;11.764;2022-08-19T09:09:45;19.83;;;11.38;;
66129;SDS011;52930;51.464;11.764;2022-08-19T09:12:26;19.83;;;11.30;;
66129;SDS011;52930;51.464;11.764;2022-08-19T09:15:02;22.20;;;11.37;;
66129;SDS011;52930;51.464;11.764;2022-08-19T09:17:33;21.25;;;11.43;;
66129;SDS011;52930;51.464;11.764;2022-08-19T09:22:37;15.75;;;9.07;;
66129;SDS011;52930;51.464;11.764;2022-08-19T09:25:04;17.88;;;9.13;;
66129;SDS011;52930;51.464;11.764;2022-08-19T09:27:31;19.63;;;10.27;;
66129;SDS011;52930;51.464;11.764;2022-08-19T09:29:57;18.20;;;10.30;;
66129;SDS011;52930;51.464;11.764;2022-08-19T09:32:22;17.63;;;9.83;;
66129;SDS011;52930;51.464;11.764;2022-08-19T09:34:48;19.55;;;10.38;;
66129;SDS011;52930;51.464;11.764;2022-08-19T09:37:14;16.83;;;9.33;;
66129;SDS011;52930;51.464;11.764;2022-08-19T09:39:40;19.23;;;9.90;;
66129;SDS011;52930;51.464;11.764;2022-08-19T09:42:06;17.05;;;10.40;;
66129;SDS011;52930;51.464;11.764;2022-08-19T09:44:37;16.10;;;8.93;;
66129;SDS011;52930;51.464;11.764;2022-08-19T09:47:03;17.10;;;9.30;;
66129;SDS011;52930;51.464;11.764;2022-08-19T09:49:29;15.00;;;8.57;;
66129;SDS011;52930;51.464;11.764;2022-08-19T09:51:56;18.52;;;10.13;;
66129;SDS011;52930;51.464;11.764;2022-08-19T09:54:21;17.20;;;9.43;;
66129;SDS011;52930;51.464;11.764;2022-08-19T09:56:47;18.35;;;10.82;;
66129;SDS011;52930;51.464;11.764;2022-08-19T09:59:13;15.80;;;8.60;;
66129;SDS011;52930;51.464;11.764;2022-08-19T10:01:38;19.13;;;9.97;;
66129;SDS011;52930;51.464;11.764;2022-08-19T10:04:04;16.90;;;9.20;;
66129;SDS011;52930;51.464;11.764;2022-08-19T10:06:34;18.48;;;10.60;;
66129;SDS011;52930;51.464;11.764;2022-08-19T10:09:01;18.70;;;10.85;;
66129;SDS011;52930;51.464;11.764;2022-08-19T10:11:29;18.50;;;10.57;;
66129;SDS011;52930;51.464;11.764;2022-08-19T10:13:54;18.13;;;9.40;;
66129;SDS011;52930;51.464;11.764;2022-08-19T10:16:21;19.43;;;10.63;;
66129;SDS011;52930;51.464;11.764;2022-08-19T10:18:47;18.13;;;9.37;;
66129;SDS011;52930;51.464;11.764;2022-08-19T10:21:17;16.48;;;9.07;;
66129;SDS011;52930;51.464;11.764;2022-08-19T10:23:45;19.95;;;10.48;;
66129;SDS011;52930;51.464;11.764;2022-08-19T10:26:17;17.67;;;9.70;;
66129;SDS011;52930;51.464;11.764;2022-08-19T10:28:44;15.95;;;8.35;;
66129;SDS011;52930;51.464;11.764;2022-08-19T10:31:15;18.63;;;10.40;;
66129;SDS011;52930;51.464;11.764;2022-08-19T10:33:44;22.30;;;10.68;;
66129;SDS011;52930;51.464;11.764;2022-08-19T10:36:15;18.67;;;10.23;;
66129;SDS011;52930;51.464;11.764;2022-08-19T10:38:48;17.23;;;9.40;;
66129;SDS011;52930;51.464;11.764;2022-08-19T10:41:17;20.13;;;10.00;;
66129;SDS011;52930;51.464;11.764;2022-08-19T10:43:44;18.33;;;10.13;;
66129;SDS011;52930;51.464;11.764;2022-08-19T10:46:11;19.13;;;10.73;;
66129;SDS011;52930;51.464;11.764;2022-08-19T10:48:38;16.13;;;9.67;;
66129;SDS011;52930;51.464;11.764;2022-08-19T10:51:05;17.70;;;9.82;;
66129;SDS011;52930;51.464;11.764;2022-08-19T10:53:49;18.80;;;10.38;;
66129;SDS011;52930;51.464;11.764;2022-08-19T10:56:15;17.85;;;9.10;;
66129;SDS011;52930;51.464;11.764;2022-08-19T10:58:59;15.07;;;8.37;;
66129;SDS011;52930;51.464;11.764;2022-08-19T11:01:26;14.35;;;8.40;;
66129;SDS011;52930;51.464;11.764;2022-08-19T11:03:51;15.70;;;9.10;;
66129;SDS011;52930;51.464;11.764;2022-08-19T11:06:17;17.63;;;8.60;;
66129;SDS011;52930;51.464;11.764;2022-08-19T11:08:44;15.77;;;8.77;;
66129;SDS011;52930;51.464;11.764;2022-08-19T11:13:40;15.40;;;7.60;;
66129;SDS011;52930;51.464;11.764;2022-08-19T11:16:09;14.83;;;8.00;;
66129;SDS011;52930;51.464;11.764;2022-08-19T11:18:44;15.35;;;8.13;;
66129;SDS011;52930;51.464;11.764;2022-08-19T11:23:35;15.07;;;8.03;;
66129;SDS011;52930;51.464;11.764;2022-08-19T11:26:01;17.17;;;8.43;;
66129;SDS011;52930;51.464;11.764;2022-08-19T11:28:26;15.13;;;8.17;;
66129;SDS011;52930;51.464;11.764;2022-08-19T11:30:52;17.13;;;9.30;;
66129;SDS011;52930;51.464;11.764;2022-08-19T11:33:17;13.63;;;7.93;;
66129;SDS011;52930;51.464;11.764;2022-08-19T11:35:43;14.40;;;8.40;;
66129;SDS011;52930;51.464;11.764;2022-08-19T11:38:09;14.95;;;8.20;;
66129;SDS011;52930;51.464;11.764;2022-08-19T11:40:34;17.47;;;8.13;;
66129;SDS011;52930;51.464;11.764;2022-08-19T11:42:59;15.13;;;8.33;;
66129;SDS011;52930;51.464;11.764;2022-08-19T11:45:26;16.80;;;8.63;;
66129;SDS011;52930;51.464;11.764;2022-08-19T11:47:52;16.05;;;8.75;;
66129;SDS011;52930;51.464;11.764;2022-08-19T11:50:18;15.00;;;8.17;;
66129;SDS011;52930;51.464;11.764;2022-08-19T11:52:44;16.20;;;8.60;;
66129;SDS011;52930;51.464;11.764;2022-08-19T11:55:10;18.80;;;10.20;;
66129;SDS011;52930;51.464;11.764;2022-08-19T11:57:36;16.77;;;8.75;;
66129;SDS011;52930;51.464;11.764;2022-08-19T12:00:02;17.33;;;8.23;;
66129;SDS011;52930;51.464;11.764;2022-08-19T12:02:29;17.63;;;9.18;;
66129;SDS011;52930;51.464;11.764;2022-08-19T12:04:54;16.63;;;9.63;;
66129;SDS011;52930;51.464;11.764;2022-08-19T12:07:20;16.27;;;9.27;;
66129;SDS011;52930;51.464;11.764;2022-08-19T12:09:45;17.10;;;9.90;;
66129;SDS011;52930;51.464;11.764;2022-08-19T12:12:11;16.73;;;9.40;;
66129;SDS011;52930;51.464;11.764;2022-08-19T12:14:36;17.63;;;8.87;;
66129;SDS011;52930;51.464;11.764;2022-08-19T12:17:02;15.83;;;8.97;;
66129;SDS011;52930;51.464;11.764;2022-08-19T12:19:29;16.70;;;8.52;;
66129;SDS011;52930;51.464;11.764;2022-08-19T12:21:58;18.47;;;9.70;;
66129;SDS011;52930;51.464;11.764;2022-08-19T12:24:26;19.20;;;9.13;;
66129;SDS011;52930;51.464;11.764;2022-08-19T12:26:51;16.50;;;9.30;;
66129;SDS011;52930;51.464;11.764;2022-08-19T12:29:18;17.20;;;9.18;;
66129;SDS011;52930;51.464;11.764;2022-08-19T12:31:43;19.88;;;9.98;;
66129;SDS011;52930;51.464;11.764;2022-08-19T12:34:09;20.40;;;9.37;;
66129;SDS011;52930;51.464;11.764;2022-08-19T12:36:34;18.07;;;9.50;;
66129;SDS011;52930;51.464;11.764;2022-08-19T12:38:59;18.87;;;9.73;;
66129;SDS011;52930;51.464;11.764;2022-08-19T12:41:25;17.63;;;9.33;;
66129;SDS011;52930;51.464;11.764;2022-08-19T12:43:51;19.60;;;9.80;;
66129;SDS011;52930;51.464;11.764;2022-08-19T12:46:17;16.63;;;9.23;;
66129;SDS011;52930;51.464;11.764;2022-08-19T12:48:44;17.17;;;9.83;;
66129;SDS011;52930;51.464;11.764;2022-08-19T12:51:11;17.75;;;9.90;;
66129;SDS011;52930;51.464;11.764;2022-08-19T12:53:41;17.17;;;9.45;;
66129;SDS011;52930;51.464;11.764;2022-08-19T12:56:07;18.38;;;9.32;;
66129;SDS011;52930;51.464;11.764;2022-08-19T12:58:34;18.42;;;9.07;;
66129;SDS011;52930;51.464;11.764;2022-08-19T13:01:13;18.20;;;9.63;;
66129;SDS011;52930;51.464;11.764;2022-08-19T13:03:39;14.95;;;8.25;;
66129;SDS011;52930;51.464;11.764;2022-08-19T13:06:04;21.73;;;9.80;;
66129;SDS011;52930;51.464;11.764;2022-08-19T13:08:30;16.73;;;9.43;;
66129;SDS011;52930;51.464;11.764;2022-08-19T13:10:55;17.30;;;8.47;;
66129;SDS011;52930;51.464;11.764;2022-08-19T13:13:21;16.87;;;8.57;;
66129;SDS011;52930;51.464;11.764;2022-08-19T13:15:46;17.13;;;8.87;;
66129;SDS011;52930;51.464;11.764;2022-08-19T13:18:12;13.02;;;7.20;;
66129;SDS011;52930;51.464;11.764;2022-08-19T13:20:38;13.93;;;8.53;;
66129;SDS011;52930;51.464;11.764;2022-08-19T13:23:05;15.20;;;9.30;;
66129;SDS011;52930;51.464;11.764;2022-08-19T13:25:31;15.93;;;8.73;;
66129;SDS011;52930;51.464;11.764;2022-08-19T13:27:57;16.13;;;8.47;;
66129;SDS011;52930;51.464;11.764;2022-08-19T13:30:22;13.80;;;7.88;;
66129;SDS011;52930;51.464;11.764;2022-08-19T13:33:07;14.80;;;9.27;;
66129;SDS011;52930;51.464;11.764;2022-08-19T13:35:37;14.10;;;8.82;;
66129;SDS011;52930;51.464;11.764;2022-08-19T13:38:04;15.80;;;9.75;;
66129;SDS011;52930;51.464;11.764;2022-08-19T13:40:30;15.45;;;9.43;;
66129;SDS011;52930;51.464;11.764;2022-08-19T13:42:58;15.63;;;8.55;;
66129;SDS011;52930;51.464;11.764;2022-08-19T13:45:25;16.37;;;9.43;;
66129;SDS011;52930;51.464;11.764;2022-08-19T13:47:52;16.77;;;9.50;;
66129;SDS011;52930;51.464;11.764;2022-08-19T13:50:21;15.57;;;9.45;;
66129;SDS011;52930;51.464;11.764;2022-08-19T13:52:50;15.40;;;9.13;;
66129;SDS011;52930;51.464;11.764;2022-08-19T13:55:16;15.95;;;9.27;;
66129;SDS011;52930;51.464;11.764;2022-08-19T13:57:42;14.60;;;9.17;;
66129;SDS011;52930;51.464;11.764;2022-08-19T14:00:09;12.40;;;8.20;;
66129;SDS011;52930;51.464;11.764;2022-08-19T14:02:36;15.98;;;8.93;;
66129;SDS011;52930;51.464;11.764;2022-08-19T14:05:03;15.27;;;9.07;;
66129;SDS011;52930;51.464;11.764;2022-08-19T14:07:30;14.03;;;8.60;;
66129;SDS011;52930;51.464;11.764;2022-08-19T14:09:55;15.05;;;9.45;;
66129;SDS011;52930;51.464;11.764;2022-08-19T14:12:21;13.23;;;9.10;;
66129;SDS011;52930;51.464;11.764;2022-08-19T14:14:46;15.83;;;8.80;;
66129;SDS011;52930;51.464;11.764;2022-08-19T14:17:12;14.23;;;8.45;;
66129;SDS011;52930;51.464;11.764;2022-08-19T14:19:37;14.73;;;8.13;;
66129;SDS011;52930;51.464;11.764;2022-08-19T14:22:03;16.17;;;8.50;;
66129;SDS011;52930;51.464;11.764;2022-08-19T14:24:29;13.45;;;8.80;;
66129;SDS011;52930;51.464;11.764;2022-08-19T14:26:54;15.20;;;8.13;;